Time;durP1;ratioP1;P1;durP2;ratioP2;P2;SDS_P1;SDS_P2;PMS_P1;PMS_P2;Temp;Humidity;BMP_temperature;BMP_pressure;BME280_temperature;BME280_humidity;BME280_pressure;Samples;Min_cycle;Max_cycle;Signal;HPM_P1;HPM_P2
2022/08/20 00:02:19;;;;;;;4.78;3.90;;;30.70;99.90;;;;;;5072758;28;20056;-54
2022/08/20 00:04:45;;;;;;;5.55;5.00;;;30.70;99.90;;;;;;5072144;28;20029;-54
2022/08/20 00:07:12;;;;;;;5.05;4.28;;;30.70;99.90;;;;;;5072953;28;20039;-53
2022/08/20 00:09:40;;;;;;;4.45;4.03;;;30.70;99.90;;;;;;5072898;28;20488;-54
2022/08/20 00:12:06;;;;;;;6.93;4.43;;;30.60;99.90;;;;;;5073117;28;20033;-53
2022/08/20 00:14:33;;;;;;;5.83;4.20;;;30.70;99.90;;;;;;5073076;28;20020;-52
2022/08/20 00:16:59;;;;;;;4.88;4.38;;;30.60;99.90;;;;;;5072606;28;20261;-53
2022/08/20 00:19:25;;;;;;;5.72;4.20;;;30.60;99.90;;;;;;5072556;28;20040;-53
2022/08/20 00:21:51;;;;;;;5.35;3.72;;;30.70;99.90;;;;;;5072511;28;20025;-53
2022/08/20 00:24:17;;;;;;;4.68;4.25;;;30.60;99.90;;;;;;5072609;28;20020;-53
2022/08/20 00:26:43;;;;;;;4.43;3.65;;;30.60;99.90;;;;;;5072475;28;20047;-51
2022/08/20 00:29:09;;;;;;;5.50;4.35;;;30.60;99.90;;;;;;5072546;28;20048;-53
2022/08/20 00:31:34;;;;;;;4.78;4.10;;;30.60;99.90;;;;;;5054503;28;20035;-54
2022/08/20 00:34:00;;;;;;;5.10;4.10;;;30.60;99.90;;;;;;5072352;28;20028;-52
2022/08/20 00:36:26;;;;;;;4.25;3.60;;;30.60;99.90;;;;;;5054325;28;20020;-52
2022/08/20 00:38:52;;;;;;;4.70;3.95;;;30.60;99.90;;;;;;5072259;28;20124;-52
2022/08/20 00:41:21;;;;;;;5.40;4.20;;;30.60;99.90;;;;;;5072391;28;20459;-52
2022/08/20 00:43:49;;;;;;;6.32;4.32;;;30.60;99.90;;;;;;5072182;28;20016;-53
2022/08/20 00:46:17;;;;;;;5.22;4.00;;;30.50;99.90;;;;;;5072101;28;20016;-53
2022/08/20 00:48:46;;;;;;;5.53;4.35;;;30.50;99.90;;;;;;5072223;28;20472;-53
2022/08/20 00:51:31;;;;;;;5.93;4.25;;;30.50;99.90;;;;;;5071894;28;20074;-52
2022/08/20 00:54:17;;;;;;;5.07;3.92;;;30.50;99.90;;;;;;5072056;28;20074;-52
2022/08/20 00:56:47;;;;;;;5.43;4.05;;;30.50;99.90;;;;;;5071865;28;20085;-52
2022/08/20 00:59:19;;;;;;;6.97;5.13;;;30.50;99.90;;;;;;5072503;28;20032;-52
2022/08/20 01:01:46;;;;;;;4.80;4.00;;;30.50;99.90;;;;;;5071833;28;20072;-53
2022/08/20 01:04:12;;;;;;;5.75;4.50;;;30.50;99.90;;;;;;5071834;28;20033;-55
2022/08/20 01:06:39;;;;;;;5.15;4.50;;;30.50;99.90;;;;;;5071885;28;20029;-55
2022/08/20 01:09:05;;;;;;;5.35;4.03;;;30.50;99.90;;;;;;5071761;28;20086;-54
2022/08/20 01:11:33;;;;;;;5.32;4.55;;;30.50;99.90;;;;;;5071499;28;20079;-55
2022/08/20 01:17:04;;;;;;;5.57;4.90;;;30.40;99.90;;;;;;5071626;28;19908;-55
2022/08/20 01:19:49;;;;;;;5.43;4.38;;;30.40;99.90;;;;;;5071610;28;20108;-54
2022/08/20 01:25:20;;;;;;;5.30;4.28;;;30.40;99.90;;;;;;5071503;28;20082;-55
2022/08/20 01:27:49;;;;;;;5.88;4.50;;;30.40;99.90;;;;;;5071442;28;20035;-55
2022/08/20 01:30:15;;;;;;;6.07;4.32;;;30.40;99.90;;;;;;5071274;28;20098;-54
2022/08/20 01:32:40;;;;;;;6.57;4.28;;;30.40;99.90;;;;;;5071598;28;20025;-54
2022/08/20 01:35:08;;;;;;;6.32;4.50;;;30.30;99.90;;;;;;5071550;28;20020;-55
2022/08/20 01:37:34;;;;;;;6.72;4.53;;;30.30;99.90;;;;;;5071286;28;20056;-55
2022/08/20 01:40:01;;;;;;;6.20;4.63;;;30.30;99.90;;;;;;5071372;28;20124;-55
2022/08/20 01:42:36;;;;;;;6.25;4.63;;;30.40;99.90;;;;;;5071242;28;20021;-54
2022/08/20 01:45:04;;;;;;;6.25;4.70;;;30.30;99.90;;;;;;5071321;28;20032;-55
2022/08/20 01:47:32;;;;;;;5.47;4.07;;;30.30;99.90;;;;;;5071290;28;20108;-54
2022/08/20 01:50:16;;;;;;;4.50;4.03;;;30.30;99.90;;;;;;5053225;28;20124;-55
2022/08/20 01:53:05;;;;;;;5.80;4.43;;;30.30;99.90;;;;;;5071396;28;20017;-54
2022/08/20 01:55:31;;;;;;;4.93;4.15;;;30.30;99.90;;;;;;5071076;28;20025;-55
2022/08/20 01:57:59;;;;;;;5.07;3.63;;;30.30;99.90;;;;;;5071064;28;20025;-54
2022/08/20 02:00:25;;;;;;;;;;;30.30;99.90;;;;;;5071970;28;20056;-54
2022/08/20 02:02:51;;;;;;;4.60;4.00;;;30.30;99.90;;;;;;5071109;28;20276;-54
2022/08/20 02:05:18;;;;;;;4.10;3.58;;;30.30;99.90;;;;;;5053185;28;20028;-55
2022/08/20 02:07:44;;;;;;;6.03;4.45;;;30.30;99.90;;;;;;5071081;28;20107;-55
2022/08/20 02:10:13;;;;;;;4.65;3.85;;;30.30;99.90;;;;;;5070972;28;20166;-54
2022/08/20 02:12:39;;;;;;;4.75;4.10;;;30.30;99.90;;;;;;5071099;28;20025;-55
2022/08/20 02:15:09;;;;;;;4.75;3.78;;;30.30;99.90;;;;;;5070765;28;20053;-54
2022/08/20 02:17:35;;;;;;;4.60;3.83;;;30.20;99.90;;;;;;5070887;28;20025;-55
2022/08/20 02:20:07;;;;;;;5.20;3.63;;;30.20;99.90;;;;;;5071042;28;20036;-56
2022/08/20 02:22:48;;;;;;;4.93;3.60;;;30.20;99.90;;;;;;5070783;28;20039;-55
2022/08/20 02:25:15;;;;;;;5.55;3.72;;;30.20;99.90;;;;;;5071136;28;20042;-55
2022/08/20 02:27:44;;;;;;;5.10;4.32;;;30.20;99.90;;;;;;5073760;28;20032;-54
2022/08/20 02:30:15;;;;;;;4.90;3.70;;;30.20;99.90;;;;;;5074877;28;20025;-54
2022/08/20 02:32:41;;;;;;;4.88;3.75;;;30.20;99.90;;;;;;5074948;28;20029;-54
2022/08/20 02:35:11;;;;;;;5.13;3.85;;;30.20;99.90;;;;;;5074468;28;20480;-55
2022/08/20 02:37:38;;;;;;;5.55;4.35;;;30.20;99.90;;;;;;5056577;28;20496;-54
2022/08/20 02:40:08;;;;;;;5.32;3.50;;;30.20;99.90;;;;;;5074676;28;20048;-55
2022/08/20 02:42:35;;;;;;;5.30;3.38;;;30.20;99.90;;;;;;5074573;28;20494;-56
2022/08/20 02:45:01;;;;;;;4.82;3.58;;;30.20;99.90;;;;;;5056452;28;20097;-54
2022/08/20 02:47:27;;;;;;;4.60;3.35;;;30.20;99.90;;;;;;5056875;28;20039;-55
2022/08/20 02:49:54;;;;;;;4.40;3.60;;;30.20;99.90;;;;;;5074349;28;20452;-56
2022/08/20 02:52:20;;;;;;;5.05;3.25;;;30.10;99.90;;;;;;5074401;28;20476;-53
2022/08/20 02:54:48;;;;;;;4.70;3.72;;;30.20;99.90;;;;;;5074650;28;20546;-54
2022/08/20 02:57:15;;;;;;;4.25;3.30;;;30.10;99.90;;;;;;5074431;28;20032;-54
2022/08/20 02:59:42;;;;;;;4.55;3.80;;;30.10;99.90;;;;;;5074562;28;20056;-53
2022/08/20 03:02:08;;;;;;;3.35;2.95;;;30.10;99.90;;;;;;5074062;28;20451;-53
2022/08/20 03:04:34;;;;;;;3.90;3.40;;;30.10;99.90;;;;;;5074088;28;20085;-54
2022/08/20 03:07:00;;;;;;;4.40;3.38;;;30.10;99.90;;;;;;5074279;28;20350;-54
2022/08/20 03:09:26;;;;;;;3.88;3.13;;;30.10;99.90;;;;;;5074040;28;20158;-53
2022/08/20 03:11:52;;;;;;;4.03;3.38;;;30.10;99.90;;;;;;5055901;28;20502;-53
2022/08/20 03:14:18;;;;;;;3.58;2.65;;;30.10;99.90;;;;;;5073863;28;20025;-55
2022/08/20 03:16:44;;;;;;;5.85;3.33;;;30.00;99.90;;;;;;5074036;28;20021;-54
2022/08/20 03:19:10;;;;;;;3.10;2.45;;;30.10;99.90;;;;;;5073809;28;20047;-56
2022/08/20 03:21:37;;;;;;;3.78;2.90;;;30.10;99.90;;;;;;5073759;28;20031;-55
2022/08/20 03:24:03;;;;;;;4.55;3.13;;;30.10;99.90;;;;;;5056070;28;20094;-54
2022/08/20 03:26:29;;;;;;;2.83;2.40;;;30.00;99.90;;;;;;5073776;28;20033;-54
2022/08/20 03:28:54;;;;;;;3.10;2.60;;;30.00;99.90;;;;;;5073679;28;20021;-54
2022/08/20 03:31:21;;;;;;;4.40;3.15;;;30.00;99.90;;;;;;5055708;28;20042;-53
2022/08/20 03:33:47;;;;;;;4.03;2.92;;;30.10;99.90;;;;;;5073677;28;20122;-54
2022/08/20 03:36:12;;;;;;;3.22;2.83;;;30.00;99.90;;;;;;5073532;28;20029;-53
2022/08/20 03:38:39;;;;;;;3.40;2.63;;;30.00;99.90;;;;;;5073418;28;20047;-54
2022/08/20 03:41:04;;;;;;;5.03;2.95;;;30.00;99.90;;;;;;5073386;28;20048;-55
2022/08/20 03:43:31;;;;;;;2.95;2.65;;;30.00;99.90;;;;;;5073252;28;20059;-53
2022/08/20 03:45:57;;;;;;;4.47;2.60;;;30.00;99.90;;;;;;5073260;28;20441;-55
2022/08/20 03:48:23;;;;;;;3.42;2.97;;;30.00;99.90;;;;;;5073171;28;20092;-55
2022/08/20 03:50:49;;;;;;;3.38;2.45;;;30.00;99.90;;;;;;5073357;28;20063;-54
2022/08/20 03:53:15;;;;;;;3.27;2.67;;;30.00;99.90;;;;;;5073062;28;20099;-54
2022/08/20 03:55:45;;;;;;;4.55;2.35;;;30.00;99.90;;;;;;5055025;28;20028;-55
2022/08/20 03:58:13;;;;;;;3.05;2.40;;;30.00;99.90;;;;;;5072933;28;20103;-55
2022/08/20 04:00:42;;;;;;;3.60;2.53;;;30.00;99.90;;;;;;5084461;22;20048;-50
2022/08/20 04:03:09;;;;;;;3.47;2.20;;;29.90;99.90;;;;;;5054903;28;20035;-50
2022/08/20 04:05:39;;;;;;;3.25;2.38;;;29.90;99.90;;;;;;5073014;28;20025;-49
2022/08/20 04:08:11;;;;;;;3.22;2.75;;;29.90;99.90;;;;;;5072871;28;20032;-49
2022/08/20 04:10:38;;;;;;;3.88;2.20;;;29.90;99.90;;;;;;5072772;28;20388;-49
2022/08/20 04:13:05;;;;;;;2.72;2.45;;;29.90;99.90;;;;;;5072968;28;20106;-50
2022/08/20 04:15:34;;;;;;;3.92;2.25;;;29.90;99.90;;;;;;5072839;28;20029;-49
2022/08/20 04:18:00;;;;;;;3.67;2.70;;;29.90;99.90;;;;;;5072729;28;20017;-49
2022/08/20 04:20:26;;;;;;;2.55;2.00;;;29.90;99.90;;;;;;5072640;28;20028;-49
2022/08/20 04:22:55;;;;;;;2.90;2.00;;;29.90;99.90;;;;;;5072662;28;20487;-49
2022/08/20 04:25:21;;;;;;;3.20;2.30;;;29.90;99.90;;;;;;5072796;28;20027;-49
2022/08/20 04:27:49;;;;;;;2.65;2.00;;;29.90;99.90;;;;;;5054649;28;20024;-50
2022/08/20 04:30:16;;;;;;;2.67;2.17;;;29.90;99.90;;;;;;5054421;28;20078;-50
2022/08/20 04:32:42;;;;;;;3.05;2.15;;;29.90;99.90;;;;;;5072487;28;20029;-49
2022/08/20 04:35:14;;;;;;;2.47;2.28;;;29.90;99.90;;;;;;5072288;28;20383;-50
2022/08/20 04:37:41;;;;;;;2.50;1.80;;;29.90;99.90;;;;;;5072384;28;20028;-49
2022/08/20 04:42:55;;;;;;;2.22;1.90;;;29.90;99.90;;;;;;5072183;28;20035;-49
2022/08/20 04:45:21;;;;;;;2.03;1.80;;;29.90;99.90;;;;;;5072463;28;20031;-49
2022/08/20 04:47:48;;;;;;;2.08;1.75;;;29.90;99.90;;;;;;5054204;28;20032;-50
2022/08/20 04:50:14;;;;;;;2.20;2.00;;;29.80;99.90;;;;;;5071583;28;20278;-49
2022/08/20 04:52:40;;;;;;;3.50;2.08;;;29.90;99.90;;;;;;5072186;28;20311;-49
2022/08/20 04:55:06;;;;;;;1.95;1.75;;;29.90;99.90;;;;;;5072063;28;20387;-49
2022/08/20 04:57:36;;;;;;;4.45;2.17;;;29.80;99.90;;;;;;5071918;28;20035;-51
2022/08/20 05:00:05;;;;;;;2.10;1.85;;;29.80;99.90;;;;;;5071796;28;20056;-50
2022/08/20 05:02:31;;;;;;;2.08;1.70;;;29.80;99.90;;;;;;5071811;28;20090;-49
2022/08/20 05:04:56;;;;;;;2.78;1.77;;;29.80;99.90;;;;;;5071786;28;20016;-49
2022/08/20 05:07:23;;;;;;;2.33;1.67;;;29.80;99.90;;;;;;5071971;28;20496;-49
2022/08/20 05:09:48;;;;;;;2.35;2.08;;;29.80;99.90;;;;;;5071467;28;20173;-49
2022/08/20 05:12:16;;;;;;;1.88;1.67;;;29.80;99.90;;;;;;5037260;28;20111;-49
2022/08/20 05:14:42;;;;;;;2.65;1.90;;;29.80;99.90;;;;;;5054287;28;20025;-49
2022/08/20 05:17:08;;;;;;;2.38;1.70;;;29.80;99.90;;;;;;5053667;28;20020;-49
2022/08/20 05:19:36;;;;;;;2.55;1.95;;;29.80;99.90;;;;;;5071570;28;20387;-49
2022/08/20 05:22:03;;;;;;;2.22;2.03;;;29.70;99.90;;;;;;5071547;28;20073;-49
2022/08/20 05:24:29;;;;;;;3.80;2.00;;;29.70;99.90;;;;;;5071580;28;20032;-49
2022/08/20 05:26:55;;;;;;;2.60;1.85;;;29.80;99.90;;;;;;5053732;28;20029;-49
2022/08/20 05:29:22;;;;;;;3.58;2.10;;;29.80;99.90;;;;;;5071348;28;20472;-49
2022/08/20 05:31:48;;;;;;;2.65;2.05;;;29.70;99.90;;;;;;5071356;28;20044;-48
2022/08/20 05:34:14;;;;;;;2.37;1.93;;;29.70;99.90;;;;;;5071430;28;20024;-49
2022/08/20 05:36:48;;;;;;;2.05;1.65;;;29.70;99.90;;;;;;5071268;28;20265;-49
2022/08/20 05:39:15;;;;;;;2.20;1.77;;;29.70;99.90;;;;;;5071284;28;20440;-49
2022/08/20 05:41:41;;;;;;;3.30;2.00;;;29.70;99.90;;;;;;5071276;28;20021;-49
2022/08/20 05:44:09;;;;;;;3.40;2.00;;;29.70;99.90;;;;;;5071291;28;20472;-49
2022/08/20 05:46:39;;;;;;;1.75;1.63;;;29.70;99.90;;;;;;5071228;28;20104;-49
2022/08/20 05:49:10;;;;;;;2.67;1.73;;;29.70;99.90;;;;;;5071031;28;20056;-49
2022/08/20 05:51:36;;;;;;;2.55;1.77;;;29.70;99.90;;;;;;5071115;28;20041;-49
2022/08/20 05:54:04;;;;;;;2.30;1.85;;;29.70;99.90;;;;;;5053129;28;20052;-49
2022/08/20 05:56:30;;;;;;;2.25;1.80;;;29.70;99.90;;;;;;5071125;28;20039;-50
2022/08/20 05:58:58;;;;;;;2.85;2.05;;;29.70;99.90;;;;;;5071290;28;20062;-49
2022/08/20 06:01:23;;;;;;;;;;;29.70;99.90;;;;;;5072297;28;20508;-49
2022/08/20 06:06:33;;;;;;;2.63;1.90;;;29.70;99.90;;;;;;5075111;28;20027;-49
2022/08/20 06:08:59;;;;;;;2.15;1.95;;;29.70;99.90;;;;;;5057203;28;20025;-49
2022/08/20 06:11:25;;;;;;;2.38;1.60;;;29.70;99.90;;;;;;5057143;28;20036;-49
2022/08/20 06:13:51;;;;;;;2.47;1.90;;;29.70;99.90;;;;;;5074940;28;20032;-49
2022/08/20 06:16:17;;;;;;;1.77;1.35;;;29.70;99.90;;;;;;5074865;28;20024;-49
2022/08/20 06:18:42;;;;;;;2.40;1.92;;;29.70;99.90;;;;;;5074932;28;20107;-50
2022/08/20 06:21:08;;;;;;;2.38;1.65;;;29.70;99.90;;;;;;5074774;28;20480;-49
2022/08/20 06:23:34;;;;;;;2.50;1.80;;;29.70;99.90;;;;;;5074942;28;20462;-49
2022/08/20 06:25:59;;;;;;;2.55;1.75;;;29.70;99.90;;;;;;5074885;28;20090;-49
2022/08/20 06:28:25;;;;;;;2.58;1.60;;;29.70;99.90;;;;;;5074575;28;20111;-50
2022/08/20 06:30:52;;;;;;;2.88;2.10;;;29.70;99.90;;;;;;5056812;28;20086;-49
2022/08/20 06:33:18;;;;;;;2.25;1.80;;;29.70;99.90;;;;;;5074723;28;20033;-49
2022/08/20 06:35:43;;;;;;;3.80;1.95;;;29.70;99.90;;;;;;5074492;28;20502;-49
2022/08/20 06:38:11;;;;;;;2.80;1.77;;;29.70;99.90;;;;;;5074596;28;20027;-49
2022/08/20 06:40:37;;;;;;;2.40;1.50;;;29.70;99.90;;;;;;5074535;28;20044;-49
2022/08/20 06:43:03;;;;;;;2.85;2.00;;;29.70;99.90;;;;;;5074412;28;20024;-49
2022/08/20 06:45:31;;;;;;;2.60;1.80;;;29.70;99.90;;;;;;5074622;28;20029;-49
2022/08/20 06:48:00;;;;;;;2.30;1.90;;;29.70;99.90;;;;;;5074528;28;20024;-49
2022/08/20 06:50:37;;;;;;;1.98;1.67;;;29.70;99.90;;;;;;5074079;28;20043;-49
2022/08/20 06:53:05;;;;;;;2.55;1.85;;;29.70;99.90;;;;;;5074084;28;20484;-48
2022/08/20 06:55:31;;;;;;;;;;;29.80;99.90;;;;;;5074832;28;20025;-49
2022/08/20 06:58:04;;;;;;;2.50;1.83;;;29.80;99.90;;;;;;5074316;28;19944;-49
2022/08/20 07:00:32;;;;;;;2.40;1.70;;;29.80;99.90;;;;;;5073941;28;20123;-49
2022/08/20 07:03:02;;;;;;;2.40;1.80;;;29.80;99.90;;;;;;5074328;28;20441;-49
2022/08/20 07:05:34;;;;;;;2.95;1.63;;;29.80;99.90;;;;;;5073657;28;20029;-50
2022/08/20 07:08:00;;;;;;;2.15;1.60;;;29.80;99.90;;;;;;5074108;28;20431;-50
2022/08/20 07:10:28;;;;;;;2.33;1.75;;;29.90;99.90;;;;;;5055961;28;20082;-50
2022/08/20 07:12:53;;;;;;;2.10;1.75;;;29.90;99.90;;;;;;5073466;28;20123;-50
2022/08/20 07:15:21;;;;;;;1.80;1.52;;;29.90;99.90;;;;;;5073907;28;20498;-50
2022/08/20 07:17:50;;;;;;;2.40;1.70;;;29.90;99.90;;;;;;5073829;28;20047;-49
2022/08/20 07:20:16;;;;;;;3.08;1.60;;;29.90;99.90;;;;;;5073651;28;20029;-48
2022/08/20 07:22:42;;;;;;;2.35;1.55;;;29.90;99.90;;;;;;5073667;28;20027;-51
2022/08/20 07:25:11;;;;;;;2.17;1.98;;;29.90;99.90;;;;;;5073702;28;20027;-48
2022/08/20 07:27:37;;;;;;;1.88;1.67;;;29.90;99.90;;;;;;5073749;28;20012;-48
2022/08/20 07:32:50;;;;;;;2.08;1.50;;;30.00;99.90;;;;;;5073800;28;20170;-51
2022/08/20 07:35:17;;;;;;;3.30;2.05;;;30.00;99.90;;;;;;5073443;28;20111;-49
2022/08/20 07:37:47;;;;;;;1.65;1.38;;;30.00;99.90;;;;;;5073412;28;20016;-48
2022/08/20 07:40:19;;;;;;;2.22;1.50;;;30.00;99.90;;;;;;5073453;28;20032;-48
2022/08/20 07:42:47;;;;;;;2.15;1.55;;;30.00;99.90;;;;;;5073294;28;20017;-48
2022/08/20 07:45:17;;;;;;;2.00;1.70;;;30.00;99.90;;;;;;5073117;28;20435;-48
2022/08/20 07:47:44;;;;;;;1.63;1.30;;;30.00;99.90;;;;;;5072925;28;20025;-48
2022/08/20 07:50:12;;;;;;;1.95;1.60;;;30.00;99.90;;;;;;5073034;28;20024;-49
2022/08/20 07:52:38;;;;;;;2.25;1.90;;;30.10;99.90;;;;;;5073134;28;20097;-48
2022/08/20 07:55:08;;;;;;;1.98;1.65;;;30.00;99.90;;;;;;5073189;28;20016;-49
2022/08/20 07:57:35;;;;;;;2.47;2.28;;;30.00;99.90;;;;;;5073177;28;20033;-49
2022/08/20 08:00:02;;;;;;;3.05;2.20;;;30.00;99.90;;;;;;5073048;28;20036;-49
2022/08/20 08:02:28;;;;;;;2.92;2.00;;;30.00;99.90;;;;;;5072845;28;20405;-48
2022/08/20 08:04:55;;;;;;;1.83;1.58;;;30.10;99.90;;;;;;5072815;28;20359;-48
2022/08/20 08:07:22;;;;;;;3.08;2.00;;;30.10;99.90;;;;;;5072824;28;20020;-49
2022/08/20 08:09:49;;;;;;;1.90;1.42;;;30.10;99.90;;;;;;5054655;28;20027;-49
2022/08/20 08:12:15;;;;;;;3.03;1.83;;;30.10;99.90;;;;;;5072663;28;20078;-49
2022/08/20 08:14:44;;;;;;;3.10;1.90;;;30.10;99.90;;;;;;5072639;28;20029;-49
2022/08/20 08:17:12;;;;;;;2.25;1.85;;;30.10;99.90;;;;;;5072438;28;20389;-49
2022/08/20 08:19:43;;;;;;;4.45;1.92;;;30.10;99.90;;;;;;5072544;28;20424;-48
2022/08/20 08:22:13;;;;;;;2.08;1.38;;;30.10;99.90;;;;;;5072542;28;20055;-48
2022/08/20 08:24:40;;;;;;;2.50;1.83;;;30.20;99.90;;;;;;5071592;28;20059;-49
2022/08/20 08:27:07;;;;;;;1.90;1.67;;;30.10;99.90;;;;;;5072585;28;20079;-48
2022/08/20 08:29:34;;;;;;;2.55;1.77;;;30.20;99.90;;;;;;5072700;28;20099;-51
2022/08/20 08:32:04;;;;;;;;;;;30.20;99.90;;;;;;5072712;28;20507;-51
2022/08/20 08:34:35;;;;;;;3.13;1.48;;;30.20;99.90;;;;;;5072159;28;20299;-48
2022/08/20 08:37:01;;;;;;;1.52;1.38;;;30.20;99.90;;;;;;5072444;28;20016;-49
2022/08/20 08:39:29;;;;;;;2.00;1.55;;;30.20;99.90;;;;;;5054431;28;20496;-48
2022/08/20 08:41:56;;;;;;;1.95;1.67;;;30.20;99.90;;;;;;5072006;28;20511;-49
2022/08/20 08:44:34;;;;;;;1.52;1.35;;;30.20;99.90;;;;;;5072190;28;20537;-49
2022/08/20 08:47:12;;;;;;;2.33;1.70;;;30.20;99.90;;;;;;5071976;28;20512;-48
2022/08/20 08:49:38;;;;;;;3.15;1.70;;;30.20;99.90;;;;;;5072156;28;20032;-49
2022/08/20 08:52:13;;;;;;;2.70;1.50;;;30.20;99.90;;;;;;5071817;28;20072;-50
2022/08/20 08:54:45;;;;;;;1.90;1.70;;;30.20;99.90;;;;;;5072062;28;20101;-49
2022/08/20 08:57:11;;;;;;;2.60;2.00;;;30.20;99.90;;;;;;5071562;28;20476;-50
2022/08/20 08:59:37;;;;;;;1.48;1.38;;;30.20;99.90;;;;;;5053613;28;20360;-50
2022/08/20 09:02:05;;;;;;;2.40;1.90;;;30.20;99.90;;;;;;5071650;28;20020;-51
2022/08/20 09:04:38;;;;;;;1.90;1.70;;;30.20;99.90;;;;;;5053647;28;20032;-50
2022/08/20 09:07:09;;;;;;;2.83;2.03;;;30.20;99.90;;;;;;5071695;28;20021;-51
2022/08/20 09:09:39;;;;;;;2.08;1.88;;;30.30;99.90;;;;;;5071508;28;20454;-51
2022/08/20 09:12:13;;;;;;;2.58;2.00;;;30.30;99.90;;;;;;5071384;28;20068;-50
2022/08/20 09:14:40;;;;;;;1.92;1.75;;;30.30;99.90;;;;;;5053705;28;20053;-51
2022/08/20 09:17:06;;;;;;;2.20;1.98;;;30.30;99.90;;;;;;5071424;28;20119;-51
2022/08/20 09:19:32;;;;;;;2.83;1.90;;;30.30;99.90;;;;;;5071436;28;20388;-51
2022/08/20 09:21:58;;;;;;;2.65;2.25;;;30.30;99.90;;;;;;5071220;28;20024;-50
2022/08/20 09:24:24;;;;;;;2.72;2.50;;;30.30;99.90;;;;;;5071122;28;20388;-50
2022/08/20 09:26:50;;;;;;;2.47;2.28;;;30.30;99.90;;;;;;5071482;28;20135;-50
2022/08/20 09:29:16;;;;;;;2.85;2.45;;;30.30;99.90;;;;;;5071089;28;20159;-50
2022/08/20 09:31:42;;;;;;;2.47;2.28;;;30.30;99.90;;;;;;5071466;28;20484;-50
2022/08/20 09:34:08;;;;;;;2.47;2.28;;;30.30;99.90;;;;;;5071429;28;20063;-51
2022/08/20 09:36:34;;;;;;;3.22;2.53;;;30.30;99.90;;;;;;5070990;28;20036;-51
2022/08/20 09:39:00;;;;;;;3.60;2.58;;;30.40;99.90;;;;;;5070991;28;20021;-51
2022/08/20 09:41:26;;;;;;;3.22;2.67;;;30.30;99.90;;;;;;5071238;28;20086;-51
2022/08/20 09:43:52;;;;;;;3.00;2.58;;;30.30;99.90;;;;;;5070982;28;20024;-51
2022/08/20 09:46:17;;;;;;;3.90;2.45;;;30.30;99.90;;;;;;5071015;28;20033;-50
2022/08/20 09:48:43;;;;;;;3.38;2.83;;;30.30;99.90;;;;;;5070988;28;20032;-50
2022/08/20 09:51:09;;;;;;;2.63;2.42;;;30.30;99.90;;;;;;5071101;28;20043;-50
2022/08/20 09:53:35;;;;;;;3.35;2.80;;;30.40;99.90;;;;;;5052698;28;20021;-49
2022/08/20 09:56:01;;;;;;;5.70;2.95;;;30.40;99.90;;;;;;5070897;28;20082;-49
2022/08/20 09:58:38;;;;;;;3.17;2.65;;;30.40;99.90;;;;;;5070849;28;20057;-50
2022/08/20 10:01:13;;;;;;;4.05;2.88;;;30.40;99.90;;;;;;5070644;28;20056;-50
2022/08/20 10:03:40;;;;;;;3.40;2.78;;;30.40;99.90;;;;;;5071221;28;20430;-49
2022/08/20 10:06:06;;;;;;;3.25;2.42;;;30.40;99.90;;;;;;5071091;28;20055;-50
2022/08/20 10:08:32;;;;;;;5.32;3.22;;;30.40;99.90;;;;;;5070780;28;20536;-49
2022/08/20 10:10:58;;;;;;;3.15;2.58;;;30.50;99.90;;;;;;5070836;28;20438;-50
2022/08/20 10:13:23;;;;;;;2.88;2.40;;;30.40;99.90;;;;;;5070817;28;20031;-50
2022/08/20 10:15:49;;;;;;;4.47;3.38;;;30.50;99.90;;;;;;5070740;28;20087;-49
2022/08/20 10:18:15;;;;;;;3.28;2.70;;;30.50;99.90;;;;;;5070887;28;20052;-50
2022/08/20 10:20:41;;;;;;;2.80;2.38;;;30.50;99.90;;;;;;5070845;28;20519;-49
2022/08/20 10:23:07;;;;;;;3.08;2.78;;;30.50;99.90;;;;;;5052632;28;20483;-49
2022/08/20 10:25:32;;;;;;;4.05;2.92;;;30.50;99.90;;;;;;5070535;28;20026;-50
2022/08/20 10:27:58;;;;;;;3.40;2.63;;;30.50;99.90;;;;;;5052784;28;20163;-49
2022/08/20 10:30:24;;;;;;;3.03;2.42;;;30.50;99.90;;;;;;5070578;28;20476;-50
2022/08/20 10:32:50;;;;;;;3.03;2.60;;;30.60;99.90;;;;;;5070604;28;20031;-50
2022/08/20 10:35:16;;;;;;;3.35;2.72;;;30.60;99.90;;;;;;5070693;28;20108;-49
2022/08/20 10:37:43;;;;;;;3.58;2.78;;;30.60;99.90;;;;;;5052812;28;20082;-49
2022/08/20 10:40:10;;;;;;;4.57;2.80;;;30.60;99.90;;;;;;5070614;28;20392;-49
2022/08/20 10:42:35;;;;;;;4.03;2.60;;;30.60;99.90;;;;;;5070496;28;20037;-50
2022/08/20 10:45:01;;;;;;;2.92;2.67;;;30.60;99.90;;;;;;5070560;28;20027;-50
2022/08/20 10:47:30;;;;;;;2.90;2.55;;;30.60;99.90;;;;;;5071319;28;20031;-50
2022/08/20 10:49:58;;;;;;;2.95;2.65;;;30.60;99.90;;;;;;5074174;28;20028;-49
2022/08/20 10:52:25;;;;;;;3.00;2.70;;;30.70;99.90;;;;;;5074125;28;20038;-49
2022/08/20 10:54:52;;;;;;;4.03;2.90;;;30.70;99.90;;;;;;5074152;28;20056;-50
2022/08/20 10:57:24;;;;;;;2.57;2.37;;;30.70;99.90;;;;;;5074362;28;20020;-50
2022/08/20 10:59:52;;;;;;;3.35;2.55;;;30.70;99.90;;;;;;5073820;28;20044;-50
2022/08/20 11:02:18;;;;;;;;;;;30.70;99.90;;;;;;5074582;28;20056;-50
2022/08/20 11:04:45;;;;;;;3.05;2.72;;;30.70;99.90;;;;;;5074306;28;19912;-50
2022/08/20 11:07:13;;;;;;;3.00;2.50;;;30.80;99.90;;;;;;5073991;28;20024;-50
2022/08/20 11:09:39;;;;;;;2.60;2.40;;;30.80;99.90;;;;;;5055977;28;20028;-49
2022/08/20 11:12:05;;;;;;;2.50;2.30;;;30.80;99.90;;;;;;5073919;28;20035;-49
2022/08/20 11:14:30;;;;;;;5.15;3.15;;;30.80;99.90;;;;;;5073936;28;20054;-50
2022/08/20 11:16:56;;;;;;;3.42;2.75;;;30.80;99.90;;;;;;5073861;28;20028;-50
2022/08/20 11:19:22;;;;;;;2.70;2.40;;;30.80;99.90;;;;;;5055849;28;20035;-49
2022/08/20 11:21:48;;;;;;;2.80;2.45;;;30.80;99.90;;;;;;5073955;28;20020;-50
2022/08/20 11:24:13;;;;;;;2.88;2.58;;;30.90;99.90;;;;;;5073592;28;20107;-50
2022/08/20 11:26:39;;;;;;;3.72;2.95;;;30.90;99.90;;;;;;5073547;28;20226;-50
2022/08/20 11:29:05;;;;;;;2.63;2.42;;;30.90;99.90;;;;;;5073635;28;20047;-50
2022/08/20 11:31:31;;;;;;;3.45;2.67;;;30.90;99.90;;;;;;5073540;28;20496;-49
2022/08/20 11:33:56;;;;;;;2.92;2.53;;;31.00;99.90;;;;;;5073541;28;20372;-49
2022/08/20 11:36:25;;;;;;;3.30;2.70;;;30.90;99.90;;;;;;5073406;28;20020;-49
2022/08/20 11:38:52;;;;;;;2.58;2.38;;;31.00;99.90;;;;;;5073390;28;20078;-50
2022/08/20 11:41:17;;;;;;;2.92;2.65;;;31.00;99.90;;;;;;5073752;28;20025;-50
2022/08/20 11:43:43;;;;;;;2.72;2.53;;;31.00;99.90;;;;;;5073312;28;20507;-50
2022/08/20 11:46:09;;;;;;;2.42;2.03;;;31.00;99.90;;;;;;5073419;28;20036;-50
2022/08/20 11:48:35;;;;;;;2.97;2.05;;;31.00;99.90;;;;;;5073250;28;20066;-50
2022/08/20 11:51:01;;;;;;;2.53;2.20;;;31.00;99.90;;;;;;5055281;28;20087;-50
2022/08/20 11:53:26;;;;;;;2.30;2.10;;;31.00;99.90;;;;;;5073007;28;20025;-50
2022/08/20 11:55:52;;;;;;;3.08;2.33;;;31.10;99.90;;;;;;5073226;28;20024;-50
2022/08/20 11:58:18;;;;;;;3.13;2.38;;;31.10;99.90;;;;;;5072811;28;20495;-50
2022/08/20 12:00:44;;;;;;;2.50;2.30;;;31.10;99.90;;;;;;5072043;28;20252;-50
2022/08/20 12:03:10;;;;;;;2.90;2.45;;;31.10;99.90;;;;;;5072988;28;20025;-55
2022/08/20 12:05:38;;;;;;;2.42;2.10;;;31.10;99.90;;;;;;5072912;28;20040;-50
2022/08/20 12:08:04;;;;;;;2.92;2.72;;;31.10;99.90;;;;;;5073005;28;20368;-50
2022/08/20 12:10:31;;;;;;;2.72;2.25;;;31.10;99.90;;;;;;5072648;28;20021;-50
2022/08/20 12:12:57;;;;;;;2.70;2.20;;;31.10;99.90;;;;;;5072857;28;20109;-50
2022/08/20 12:15:25;;;;;;;2.72;2.15;;;31.20;99.90;;;;;;5072937;28;20035;-50
2022/08/20 12:17:51;;;;;;;2.60;2.35;;;31.20;99.90;;;;;;5054932;28;20021;-50
2022/08/20 12:20:17;;;;;;;3.17;2.50;;;31.20;99.90;;;;;;5072657;28;20086;-50
2022/08/20 12:22:43;;;;;;;2.33;2.13;;;31.20;99.90;;;;;;5072609;28;20809;-50
2022/08/20 12:25:09;;;;;;;2.47;2.28;;;31.20;99.90;;;;;;5072485;28;20032;-50
2022/08/20 12:27:36;;;;;;;2.85;2.50;;;31.30;99.90;;;;;;5072489;28;20078;-50
2022/08/20 12:30:14;;;;;;;;;;;31.20;99.90;;;;;;5072854;28;20078;-50
2022/08/20 12:32:41;;;;;;;2.80;2.50;;;31.30;99.90;;;;;;5072370;28;19909;-50
2022/08/20 12:35:08;;;;;;;3.38;2.50;;;31.30;99.90;;;;;;5072441;28;20024;-50
2022/08/20 12:37:34;;;;;;;;;;;31.30;99.90;;;;;;5055192;28;20029;-50
2022/08/20 12:40:04;;;;;;;2.53;2.33;;;31.30;99.90;;;;;;5072278;28;19999;-50
2022/08/20 12:42:30;;;;;;;2.53;2.20;;;31.30;99.90;;;;;;5072181;28;20024;-50
2022/08/20 12:44:56;;;;;;;2.90;2.20;;;31.30;99.90;;;;;;5072424;28;20082;-50
2022/08/20 12:47:28;;;;;;;2.67;2.20;;;31.30;99.90;;;;;;5072574;28;20025;-50
2022/08/20 12:49:59;;;;;;;3.00;2.53;;;31.40;99.90;;;;;;5072280;28;20024;-50
2022/08/20 12:52:26;;;;;;;2.83;2.20;;;31.40;99.90;;;;;;5072223;28;20033;-50
2022/08/20 12:54:52;;;;;;;2.47;2.08;;;31.40;99.90;;;;;;5072306;28;20431;-50
2022/08/20 12:57:28;;;;;;;3.85;2.30;;;31.40;99.90;;;;;;5071879;28;20085;-49
2022/08/20 12:59:55;;;;;;;2.60;2.15;;;31.40;99.90;;;;;;5071960;28;20090;-49
2022/08/20 13:02:21;;;;;;;2.33;2.10;;;31.40;99.90;;;;;;5072007;28;20029;-49
2022/08/20 13:04:47;;;;;;;3.08;2.53;;;31.40;99.90;;;;;;5071869;28;20491;-49